createdAt,value
2023-02-17T00:01:22.645Z,6.99
2023-02-17T00:03:50.983Z,6.99
2023-02-17T00:06:24.143Z,7.01
2023-02-17T00:08:51.375Z,6.99
2023-02-17T00:11:18.841Z,7.03
2023-02-17T00:13:46.573Z,7.06
2023-02-17T00:16:18.142Z,7.02
2023-02-17T00:18:45.638Z,7.04
2023-02-17T00:21:24.430Z,7.07
2023-02-17T00:23:52.081Z,7.10
2023-02-17T00:26:20.426Z,7.10
2023-02-17T00:28:48.987Z,7.10
2023-02-17T00:31:21.643Z,7.13
2023-02-17T00:33:48.856Z,7.15
2023-02-17T00:36:20.089Z,7.13
2023-02-17T00:38:48.580Z,7.17
2023-02-17T00:41:16.899Z,7.17
2023-02-17T00:43:43.743Z,7.17
2023-02-17T00:46:13.534Z,7.19
2023-02-17T00:48:41.208Z,7.18
2023-02-17T00:51:08.894Z,7.20
2023-02-17T00:53:36.338Z,7.26
2023-02-17T00:56:04.705Z,7.25
2023-02-17T00:58:31.959Z,7.22
2023-02-17T01:00:59.646Z,7.27
2023-02-17T01:03:27.521Z,7.30
2023-02-17T01:05:55.783Z,7.30
2023-02-17T01:08:24.184Z,7.32
2023-02-17T01:10:52.139Z,7.28
2023-02-17T01:13:19.940Z,7.29
2023-02-17T01:15:52.062Z,7.35
2023-02-17T01:18:22.725Z,7.33
2023-02-17T01:20:49.619Z,7.32
2023-02-17T01:23:16.553Z,7.35
2023-02-17T01:25:46.055Z,7.31
2023-02-17T01:28:17.838Z,7.36
2023-02-17T01:30:45.062Z,7.38
2023-02-17T01:33:12.227Z,7.39
2023-02-17T01:35:39.256Z,7.40
2023-02-17T01:38:06.116Z,7.41
2023-02-17T01:40:33.863Z,7.41
2023-02-17T01:43:00.750Z,7.41
2023-02-17T01:45:46.573Z,7.46
2023-02-17T01:48:23.763Z,7.50
2023-02-17T01:51:09.397Z,7.49
2023-02-17T01:54:01.453Z,7.44
2023-02-17T01:56:31.637Z,7.48
2023-02-17T01:59:04.024Z,7.51
2023-02-17T02:01:32.211Z,7.57
2023-02-17T02:04:01.006Z,7.53
2023-02-17T02:06:30.356Z,7.55
2023-02-17T02:09:07.507Z,7.61
2023-02-17T02:11:36.033Z,7.61
2023-02-17T02:14:05.021Z,7.57
2023-02-17T02:17:03.540Z,7.56
2023-02-17T02:20:07.681Z,7.61
2023-02-17T02:22:54.568Z,7.62
2023-02-17T02:26:02.670Z,7.63
2023-02-17T02:28:59.025Z,7.67
2023-02-17T02:32:04.078Z,7.68
2023-02-17T02:34:43.886Z,7.71
2023-02-17T02:37:35.770Z,7.71
2023-02-17T02:40:08.334Z,7.72
2023-02-17T02:42:35.973Z,7.74
2023-02-17T02:45:07.714Z,7.74
2023-02-17T02:47:54.872Z,7.78
2023-02-17T02:50:58.755Z,7.81
2023-02-17T02:53:50.830Z,7.78
2023-02-17T02:56:36.692Z,7.78
2023-02-17T02:59:20.834Z,7.82
2023-02-17T03:02:21.085Z,7.83
2023-02-17T03:05:12.391Z,7.83
2023-02-17T03:07:48.468Z,7.84
2023-02-17T03:10:16.110Z,7.93
2023-02-17T03:12:43.969Z,7.89
2023-02-17T03:15:35.157Z,7.89
2023-02-17T03:18:03.743Z,7.94
2023-02-17T03:20:35.096Z,7.90
2023-02-17T03:26:43.079Z,7.93
2023-02-17T03:29:10.271Z,7.92
2023-02-17T03:31:38.172Z,7.93
2023-02-17T03:34:05.711Z,7.93
2023-02-17T03:36:33.030Z,7.99
2023-02-17T03:38:59.996Z,8.01
2023-02-17T03:41:26.972Z,8.01
2023-02-17T03:43:53.940Z,7.95
2023-02-17T03:46:20.755Z,8.03
2023-02-17T03:48:47.765Z,8.04
2023-02-17T03:51:23.115Z,8.05
2023-02-17T03:53:51.325Z,8.08
2023-02-17T03:56:19.492Z,8.06
2023-02-17T03:58:46.252Z,8.11
2023-02-17T04:01:14.164Z,8.10
2023-02-17T04:03:41.595Z,8.08
2023-02-17T04:06:09.248Z,8.10
2023-02-17T04:08:37.317Z,8.11
2023-02-17T04:11:05.542Z,8.10
2023-02-17T04:13:32.855Z,8.13
2023-02-17T04:16:01.654Z,8.16
2023-02-17T04:18:28.930Z,8.19
2023-02-17T04:20:55.936Z,8.16
2023-02-17T04:23:22.996Z,8.18
2023-02-17T04:25:50.099Z,8.21
2023-02-17T04:28:17.660Z,8.20
2023-02-17T04:30:46.465Z,8.20
2023-02-17T04:33:14.269Z,8.29
2023-02-17T04:35:41.269Z,8.26
2023-02-17T04:38:09.340Z,8.27
2023-02-17T04:40:37.113Z,8.28
2023-02-17T04:43:04.885Z,8.29
2023-02-17T04:45:32.102Z,8.27
2023-02-17T04:47:58.979Z,8.29
2023-02-17T04:50:25.948Z,8.33
2023-02-17T04:52:52.844Z,8.33
2023-02-17T04:55:20.217Z,8.32
2023-02-17T04:57:47.237Z,8.35
2023-02-17T05:00:14.348Z,8.36
2023-02-17T05:02:41.251Z,8.39
2023-02-17T05:05:08.470Z,8.37
2023-02-17T05:07:35.421Z,8.37
2023-02-17T05:10:02.499Z,8.41
2023-02-17T05:12:29.431Z,8.42
2023-02-17T05:14:56.411Z,8.38
2023-02-17T05:17:23.475Z,8.40
2023-02-17T05:19:50.450Z,8.42
2023-02-17T05:22:17.438Z,8.43
2023-02-17T05:24:44.309Z,8.47
2023-02-17T05:27:10.948Z,8.45
2023-02-17T05:29:37.782Z,8.45
2023-02-17T05:32:04.669Z,8.39
2023-02-17T05:34:31.582Z,8.43
2023-02-17T05:36:58.631Z,8.43
2023-02-17T05:39:25.794Z,8.43
2023-02-17T05:41:52.824Z,8.43
2023-02-17T05:44:19.733Z,8.41
2023-02-17T05:46:46.718Z,8.45
2023-02-17T05:49:14.503Z,8.50
2023-02-17T05:51:41.411Z,8.48
2023-02-17T05:54:08.638Z,8.48
2023-02-17T05:56:35.838Z,8.44
2023-02-17T05:59:02.858Z,8.45
2023-02-17T06:01:29.890Z,8.45
2023-02-17T06:03:56.979Z,8.47
2023-02-17T06:06:24.456Z,8.48
2023-02-17T06:08:51.732Z,8.47
2023-02-17T06:11:19.002Z,8.46
2023-02-17T06:13:45.747Z,8.45
2023-02-17T06:16:12.693Z,8.42
2023-02-17T06:18:39.551Z,8.39
2023-02-17T06:21:06.486Z,8.43
2023-02-17T06:23:33.670Z,8.43
2023-02-17T06:26:00.640Z,8.43
2023-02-17T06:28:28.666Z,8.44
2023-02-17T06:30:55.967Z,8.41
2023-02-17T06:33:25.734Z,8.47
2023-02-17T06:35:52.989Z,8.42
2023-02-17T06:38:19.981Z,8.45
2023-02-17T06:40:47.095Z,8.47
2023-02-17T06:43:13.970Z,8.46
2023-02-17T06:45:41.074Z,8.47
2023-02-17T06:48:08.114Z,8.51
2023-02-17T06:50:35.263Z,8.49
2023-02-17T06:53:02.203Z,8.50
2023-02-17T06:55:29.079Z,8.51
2023-02-17T06:57:56.067Z,8.50
2023-02-17T07:00:23.252Z,8.54
2023-02-17T07:02:50.087Z,8.54
2023-02-17T07:05:17.349Z,8.52
2023-02-17T07:07:44.525Z,8.52
2023-02-17T07:10:11.802Z,8.55
2023-02-17T07:12:38.813Z,8.55
2023-02-17T07:15:05.852Z,8.54
2023-02-17T07:17:32.834Z,8.56
2023-02-17T07:19:59.889Z,8.61
2023-02-17T07:22:29.679Z,8.60
2023-02-17T07:24:56.565Z,8.59
2023-02-17T07:27:23.595Z,8.62
2023-02-17T07:29:50.610Z,8.62
2023-02-17T07:32:17.724Z,8.65
2023-02-17T07:34:44.622Z,8.67
2023-02-17T07:37:11.560Z,8.62
2023-02-17T07:39:38.475Z,8.64
2023-02-17T07:42:06.542Z,8.68
2023-02-17T07:44:35.807Z,8.69
2023-02-17T07:47:02.718Z,8.71
2023-02-17T07:49:29.809Z,8.75
2023-02-17T07:51:56.753Z,8.72
2023-02-17T07:54:23.531Z,8.76
2023-02-17T07:56:50.378Z,8.71
2023-02-17T07:59:17.423Z,8.72
2023-02-17T08:01:44.300Z,8.74
2023-02-17T08:04:11.577Z,8.74
2023-02-17T08:06:42.394Z,8.79
2023-02-17T08:09:32.217Z,8.77
2023-02-17T08:12:19.196Z,8.79
2023-02-17T08:14:46.374Z,8.78
2023-02-17T08:17:13.225Z,8.82
2023-02-17T08:19:47.925Z,8.79
2023-02-17T08:22:17.759Z,8.85
2023-02-17T08:24:46.224Z,8.82
2023-02-17T08:27:15.568Z,8.81
2023-02-17T08:29:43.575Z,8.81
2023-02-17T08:32:11.357Z,8.79
2023-02-17T08:34:38.489Z,8.79
2023-02-17T08:37:06.977Z,8.78
2023-02-17T08:39:34.754Z,8.78
2023-02-17T08:42:01.932Z,8.79
2023-02-17T08:44:28.915Z,8.79
2023-02-17T08:46:56.286Z,8.82
2023-02-17T08:49:27.124Z,8.83
2023-02-17T08:51:54.304Z,8.81
2023-02-17T08:54:22.807Z,8.84
2023-02-17T08:56:49.887Z,8.82
2023-02-17T08:59:16.924Z,8.81
2023-02-17T09:01:44.638Z,8.82
2023-02-17T09:04:16.540Z,8.84
2023-02-17T09:06:49.563Z,8.85
2023-02-17T09:09:26.952Z,8.82
2023-02-17T09:11:58.579Z,8.81
2023-02-17T09:14:26.318Z,8.78
2023-02-17T09:16:54.657Z,8.77
2023-02-17T09:19:22.984Z,8.81
2023-02-17T09:21:50.228Z,8.80
2023-02-17T09:24:20.119Z,8.83
2023-02-17T09:26:49.805Z,8.80
2023-02-17T09:29:16.892Z,8.82
2023-02-17T09:31:46.198Z,8.85
2023-02-17T09:34:13.312Z,8.86
2023-02-17T09:36:41.971Z,8.89
2023-02-17T09:39:13.451Z,8.89
2023-02-17T09:41:48.007Z,8.88
2023-02-17T09:44:41.069Z,8.88
2023-02-17T09:47:17.062Z,8.95
2023-02-17T09:49:48.377Z,8.91
2023-02-17T09:52:27.578Z,8.89
2023-02-17T09:54:57.322Z,8.93
2023-02-17T09:57:29.808Z,8.95
2023-02-17T10:00:02.829Z,8.96
2023-02-17T10:02:36.046Z,8.99
2023-02-17T10:05:08.001Z,9.02
2023-02-17T10:08:05.526Z,9.03
2023-02-17T10:10:45.378Z,9.02
2023-02-17T10:13:16.577Z,9.09
2023-02-17T10:15:47.129Z,9.12
2023-02-17T10:18:36.009Z,9.08
2023-02-17T10:21:19.620Z,9.11
2023-02-17T10:23:47.896Z,9.10
2023-02-17T10:26:23.731Z,9.15
2023-02-17T10:28:53.849Z,9.12
2023-02-17T10:31:37.549Z,9.12
2023-02-17T10:34:35.359Z,9.12
2023-02-17T10:37:14.947Z,9.14
2023-02-17T10:39:50.697Z,9.17
2023-02-17T10:42:36.577Z,9.23
2023-02-17T10:45:11.046Z,9.28
2023-02-17T10:47:40.235Z,9.30
2023-02-17T10:50:19.847Z,9.36
2023-02-17T10:52:47.367Z,9.37
2023-02-17T10:55:23.764Z,9.35
2023-02-17T10:58:24.396Z,9.34
2023-02-17T11:00:56.644Z,9.32
2023-02-17T11:03:27.975Z,9.34
2023-02-17T11:06:01.667Z,9.37
2023-02-17T11:08:39.567Z,9.36
2023-02-17T11:11:14.537Z,9.33
2023-02-17T11:13:45.489Z,9.36
2023-02-17T11:16:33.981Z,9.33
2023-02-17T11:19:01.503Z,9.34
2023-02-17T11:21:29.840Z,9.34
2023-02-17T11:24:01.192Z,9.33
2023-02-17T11:26:32.217Z,9.35
2023-02-17T11:29:10.766Z,9.39
2023-02-17T11:31:38.199Z,9.38
2023-02-17T11:34:16.233Z,9.40
2023-02-17T11:36:46.378Z,9.42
2023-02-17T11:39:21.280Z,9.46
2023-02-17T11:41:48.598Z,9.48
2023-02-17T11:44:26.545Z,9.51
2023-02-17T11:47:19.444Z,9.55
2023-02-17T11:50:40.724Z,9.59
2023-02-17T11:53:23.374Z,9.65
2023-02-17T11:56:08.770Z,9.65
2023-02-17T11:59:05.360Z,9.66
2023-02-17T12:01:49.272Z,9.63
2023-02-17T12:04:41.326Z,9.70
2023-02-17T12:07:29.777Z,9.70
2023-02-17T12:10:22.492Z,9.66
2023-02-17T12:13:02.556Z,9.66
2023-02-17T12:15:58.437Z,9.67
2023-02-17T12:18:33.356Z,9.70
2023-02-17T12:21:28.048Z,9.71
2023-02-17T12:24:16.935Z,9.74
2023-02-17T12:26:48.397Z,9.73
2023-02-17T12:29:21.062Z,9.73
2023-02-17T12:32:10.810Z,9.73
2023-02-17T12:34:51.467Z,9.74
2023-02-17T12:37:24.054Z,9.74
2023-02-17T12:39:55.149Z,9.73
2023-02-17T12:42:37.357Z,9.73
2023-02-17T12:45:19.489Z,9.75
2023-02-17T12:48:09.884Z,9.71
2023-02-17T12:50:51.248Z,9.71
2023-02-17T12:53:53.543Z,9.70
2023-02-17T12:56:26.047Z,9.70
2023-02-17T12:58:56.577Z,9.68
2023-02-17T13:01:29.688Z,9.67
2023-02-17T13:04:00.135Z,9.70
2023-02-17T13:06:43.430Z,9.71
2023-02-17T13:09:32.372Z,9.70
2023-02-17T13:12:30.109Z,9.74
2023-02-17T13:15:00.012Z,9.75
2023-02-17T13:17:51.894Z,9.76
2023-02-17T13:20:18.808Z,9.81
2023-02-17T13:22:46.270Z,9.87
2023-02-17T13:25:37.418Z,10.02
2023-02-17T13:28:35.228Z,10.13
2023-02-17T13:31:16.061Z,10.17
2023-02-17T13:33:52.613Z,10.16
2023-02-17T13:36:28.433Z,10.12
2023-02-17T13:39:16.325Z,10.11
2023-02-17T13:41:48.390Z,10.06
2023-02-17T13:44:32.177Z,10.06
2023-02-17T13:47:04.213Z,10.06
2023-02-17T13:49:39.001Z,10.06
2023-02-17T13:52:18.381Z,10.17
2023-02-17T13:55:06.131Z,10.19
2023-02-17T13:57:36.974Z,10.20
2023-02-17T14:00:21.935Z,10.18
2023-02-17T14:03:25.242Z,10.18
2023-02-17T14:05:59.773Z,10.17
2023-02-17T14:08:30.211Z,10.21
2023-02-17T14:10:58.192Z,10.26
2023-02-17T14:13:26.003Z,10.29
2023-02-17T14:15:58.890Z,10.33
2023-02-17T14:18:44.627Z,10.30
2023-02-17T14:21:31.730Z,10.20
2023-02-17T14:23:59.963Z,10.10
2023-02-17T14:26:47.828Z,10.06
2023-02-17T14:29:15.680Z,9.98
2023-02-17T14:31:44.290Z,9.95
2023-02-17T14:34:29.109Z,9.86
2023-02-17T14:37:09.606Z,9.76
2023-02-17T14:39:36.826Z,9.75
2023-02-17T14:42:04.031Z,9.73
2023-02-17T14:44:30.996Z,9.71
2023-02-17T14:46:57.970Z,9.67
2023-02-17T14:49:24.982Z,9.67
2023-02-17T14:51:51.980Z,9.61
2023-02-17T14:54:19.702Z,9.56
2023-02-17T14:57:06.655Z,9.48
2023-02-17T14:59:34.069Z,9.44
2023-02-17T15:02:01.137Z,9.46
2023-02-17T15:04:31.495Z,9.37
2023-02-17T15:06:59.239Z,9.35
2023-02-17T15:09:31.587Z,9.28
2023-02-17T15:12:00.120Z,9.27
2023-02-17T15:14:26.851Z,9.21
2023-02-17T15:16:53.657Z,9.15
2023-02-17T15:19:20.864Z,9.12
2023-02-17T15:21:50.697Z,9.08
2023-02-17T15:24:23.795Z,9.01
2023-02-17T15:26:55.016Z,8.94
2023-02-17T15:29:24.477Z,8.88
2023-02-17T15:31:54.539Z,8.85
2023-02-17T15:34:31.242Z,8.76
2023-02-17T15:37:02.181Z,8.60
2023-02-17T15:39:29.337Z,8.50
2023-02-17T15:42:04.176Z,8.47
2023-02-17T15:44:40.804Z,8.36
2023-02-17T15:47:20.845Z,8.28
2023-02-17T15:49:47.718Z,8.20
2023-02-17T15:52:15.382Z,8.13
2023-02-17T15:54:42.985Z,8.04
2023-02-17T15:57:21.305Z,7.97
2023-02-17T15:59:48.395Z,7.92
2023-02-17T16:02:21.544Z,7.80
2023-02-17T16:04:48.919Z,7.77
2023-02-17T16:07:16.029Z,7.74
2023-02-17T16:09:43.174Z,7.68
2023-02-17T16:12:18.105Z,7.62
2023-02-17T16:14:45.724Z,7.51
2023-02-17T16:17:17.054Z,7.48
2023-02-17T16:19:44.358Z,7.39
2023-02-17T16:22:14.572Z,7.33
2023-02-17T16:24:41.369Z,7.29
2023-02-17T16:27:11.905Z,7.27
2023-02-17T16:29:38.893Z,7.17
2023-02-17T16:32:05.862Z,7.14
2023-02-17T16:34:34.058Z,7.08
2023-02-17T16:37:11.678Z,7.08
2023-02-17T16:39:39.771Z,7.00
2023-02-17T16:42:06.970Z,6.98
2023-02-17T16:44:33.828Z,6.98
2023-02-17T16:47:02.807Z,6.84
2023-02-17T16:49:33.520Z,6.82
2023-02-17T16:52:01.794Z,6.79
2023-02-17T16:54:29.314Z,6.75
2023-02-17T16:56:57.739Z,6.72
2023-02-17T16:59:26.232Z,6.68
2023-02-17T17:01:55.815Z,6.65
2023-02-17T17:04:22.827Z,6.64
2023-02-17T17:06:51.898Z,6.63
2023-02-17T17:09:23.092Z,6.65
2023-02-17T17:11:50.239Z,6.60
2023-02-17T17:14:16.964Z,6.61
2023-02-17T17:16:53.633Z,6.56
2023-02-17T17:19:20.428Z,6.54
2023-02-17T17:21:49.369Z,6.54
2023-02-17T17:24:16.229Z,6.55
2023-02-17T17:26:46.266Z,6.50
2023-02-17T17:29:15.625Z,6.52
2023-02-17T17:31:43.163Z,6.48
2023-02-17T17:34:10.390Z,6.47
2023-02-17T17:36:40.260Z,6.42
2023-02-17T17:39:16.345Z,6.42
2023-02-17T17:41:46.492Z,6.44
2023-02-17T17:44:13.796Z,6.40
2023-02-17T17:46:41.721Z,6.41
2023-02-17T17:49:12.231Z,6.34
2023-02-17T17:51:39.660Z,6.33
2023-02-17T17:54:07.774Z,6.30
2023-02-17T17:56:39.062Z,6.31
2023-02-17T17:59:06.723Z,6.28
2023-02-17T18:01:34.196Z,6.28
2023-02-17T18:04:01.984Z,6.34
2023-02-17T18:06:34.541Z,6.29
2023-02-17T18:09:10.036Z,6.24
2023-02-17T18:11:38.470Z,6.16
2023-02-17T18:14:10.589Z,6.16
2023-02-17T18:16:39.076Z,6.17
2023-02-17T18:19:08.468Z,6.16
2023-02-17T18:21:40.118Z,6.18
2023-02-17T18:24:08.271Z,6.15
2023-02-17T18:26:36.126Z,6.08
2023-02-17T18:29:03.142Z,6.12
2023-02-17T18:31:32.155Z,6.11
2023-02-17T18:33:59.250Z,6.08
2023-02-17T18:36:27.588Z,6.07
2023-02-17T18:38:54.796Z,6.04
2023-02-17T18:41:29.402Z,6.00
2023-02-17T18:43:58.587Z,6.03
2023-02-17T18:46:27.200Z,5.95
2023-02-17T18:48:55.613Z,5.95
2023-02-17T18:51:24.116Z,5.93
2023-02-17T18:53:51.453Z,5.93
2023-02-17T18:56:22.685Z,5.91
2023-02-17T18:58:51.947Z,5.86
2023-02-17T19:01:22.206Z,5.86
2023-02-17T19:03:49.130Z,5.80
2023-02-17T19:06:19.154Z,5.86
2023-02-17T19:08:47.620Z,5.84
2023-02-17T19:11:15.973Z,5.77
2023-02-17T19:13:43.137Z,5.76
2023-02-17T19:16:15.690Z,5.83
2023-02-17T19:18:43.691Z,5.79
2023-02-17T19:21:10.992Z,5.83
2023-02-17T19:23:40.534Z,5.82
2023-02-17T19:26:10.252Z,5.80
2023-02-17T19:28:37.992Z,5.76
2023-02-17T19:31:14.524Z,5.79
2023-02-17T19:33:43.230Z,5.80
2023-02-17T19:36:12.130Z,5.80
2023-02-17T19:38:39.615Z,5.84
2023-02-17T19:41:08.568Z,5.78
2023-02-17T19:43:35.617Z,5.78
2023-02-17T19:46:02.615Z,5.76
2023-02-17T19:48:29.575Z,5.75
2023-02-17T19:51:01.984Z,5.72
2023-02-17T19:53:31.176Z,5.64
2023-02-17T19:56:12.354Z,5.63
2023-02-17T19:58:40.719Z,5.70
2023-02-17T20:01:10.390Z,5.72
2023-02-17T20:03:37.903Z,5.71
2023-02-17T20:06:10.932Z,5.69
2023-02-17T20:08:38.535Z,5.70
2023-02-17T20:11:08.022Z,5.75
2023-02-17T20:13:45.790Z,5.74
2023-02-17T20:16:15.610Z,5.68
2023-02-17T20:18:46.735Z,5.70
2023-02-17T20:21:16.993Z,5.68
2023-02-17T20:23:44.496Z,5.63
2023-02-17T20:26:15.199Z,5.56
2023-02-17T20:28:42.496Z,5.56
2023-02-17T20:31:09.736Z,5.47
2023-02-17T20:33:37.321Z,5.43
2023-02-17T20:36:07.070Z,5.40
2023-02-17T20:38:35.123Z,5.41
2023-02-17T20:41:02.089Z,5.35
2023-02-17T20:43:29.623Z,5.36
2023-02-17T20:45:57.832Z,5.34
2023-02-17T20:48:27.908Z,5.34
2023-02-17T20:50:59.154Z,5.40
2023-02-17T20:53:26.874Z,5.39
2023-02-17T20:55:53.660Z,5.32
2023-02-17T20:58:20.890Z,5.33
2023-02-17T21:00:48.554Z,5.30
2023-02-17T21:03:20.903Z,5.34
2023-02-17T21:05:47.983Z,5.30
2023-02-17T21:08:14.781Z,5.32
2023-02-17T21:10:41.691Z,5.30
2023-02-17T21:13:08.766Z,5.29
2023-02-17T21:15:38.705Z,5.26
2023-02-17T21:18:05.921Z,5.24
2023-02-17T21:20:34.059Z,5.21
2023-02-17T21:23:01.401Z,5.22
2023-02-17T21:25:28.537Z,5.19
2023-02-17T21:27:56.854Z,5.20
2023-02-17T21:30:25.647Z,5.17
2023-02-17T21:32:55.305Z,5.14
2023-02-17T21:35:22.337Z,5.09
2023-02-17T21:37:49.482Z,5.07
2023-02-17T21:40:16.536Z,5.04
2023-02-17T21:43:02.443Z,5.10
2023-02-17T21:45:29.445Z,5.09
2023-02-17T21:47:56.502Z,5.12
2023-02-17T21:50:23.477Z,5.02
2023-02-17T21:52:50.369Z,4.98
2023-02-17T21:55:19.192Z,4.99
2023-02-17T21:57:46.425Z,5.03
2023-02-17T22:00:14.120Z,5.02
2023-02-17T22:02:43.460Z,4.98
2023-02-17T22:05:11.207Z,4.93
2023-02-17T22:07:38.005Z,4.91
2023-02-17T22:10:06.413Z,4.93
2023-02-17T22:12:36.730Z,4.92
2023-02-17T22:15:06.173Z,4.91
2023-02-17T22:17:35.802Z,4.94
2023-02-17T22:20:04.748Z,4.89
2023-02-17T22:22:31.446Z,4.88
2023-02-17T22:24:58.275Z,4.85
2023-02-17T22:27:25.180Z,4.91
2023-02-17T22:29:52.078Z,4.89
2023-02-17T22:32:18.940Z,4.88
2023-02-17T22:34:45.917Z,4.91
2023-02-17T22:37:12.784Z,4.86
2023-02-17T22:39:42.480Z,4.90
2023-02-17T22:42:09.405Z,4.90
2023-02-17T22:44:38.959Z,4.86
2023-02-17T22:47:06.082Z,4.82
2023-02-17T22:49:33.097Z,4.76
2023-02-17T22:52:00.081Z,4.77
2023-02-17T22:54:29.534Z,4.77
2023-02-17T22:56:56.767Z,4.79
2023-02-17T22:59:23.569Z,4.81
2023-02-17T23:01:52.568Z,4.93
2023-02-17T23:04:19.686Z,4.88
2023-02-17T23:06:46.558Z,4.87
2023-02-17T23:09:17.236Z,4.88
2023-02-17T23:11:50.556Z,4.94
2023-02-17T23:14:33.146Z,4.92
2023-02-17T23:17:12.220Z,4.88
2023-02-17T23:19:41.058Z,4.86
2023-02-17T23:22:11.769Z,4.83
2023-02-17T23:24:38.879Z,4.86
2023-02-17T23:27:06.088Z,4.87
2023-02-17T23:29:33.085Z,4.88
2023-02-17T23:32:02.678Z,4.88
2023-02-17T23:34:29.846Z,4.88
2023-02-17T23:36:56.994Z,4.82
2023-02-17T23:39:23.882Z,4.85
2023-02-17T23:41:50.737Z,4.88
2023-02-17T23:44:18.047Z,4.89
2023-02-17T23:46:45.835Z,4.89
2023-02-17T23:49:15.319Z,4.89
2023-02-17T23:51:42.610Z,5.04
2023-02-17T23:54:09.499Z,5.04
2023-02-17T23:56:37.201Z,5.10
2023-02-17T23:59:04.227Z,5.17
